sensor_id;sensor_type;location;lat;lon;timestamp;P1;durP1;ratioP1;P2;durP2;ratioP2
75516;SDS011;64097;52.548;13.406;2023-04-24T06:02:24;2.10;;;1.70;;
75516;SDS011;64097;52.548;13.406;2023-04-24T06:04:50;2.15;;;1.75;;
75516;SDS011;64097;52.548;13.406;2023-04-24T06:07:16;1.83;;;1.63;;
75516;SDS011;64097;52.548;13.406;2023-04-24T06:09:42;2.00;;;1.70;;
75516;SDS011;64097;52.548;13.406;2023-04-24T06:12:08;2.45;;;1.50;;
75516;SDS011;64097;52.548;13.406;2023-04-24T06:14:34;3.10;;;2.00;;
75516;SDS011;64097;52.548;13.406;2023-04-24T06:16:59;3.78;;;2.70;;
75516;SDS011;64097;52.548;13.406;2023-04-24T06:19:25;4.05;;;3.42;;
75516;SDS011;64097;52.548;13.406;2023-04-24T06:21:51;3.17;;;2.88;;
75516;SDS011;64097;52.548;13.406;2023-04-24T06:24:16;2.75;;;1.83;;
75516;SDS011;64097;52.548;13.406;2023-04-24T06:26:42;2.13;;;1.40;;
75516;SDS011;64097;52.548;13.406;2023-04-24T06:29:07;1.60;;;1.50;;
75516;SDS011;64097;52.548;13.406;2023-04-24T06:31:33;1.80;;;1.60;;
75516;SDS011;64097;52.548;13.406;2023-04-24T06:34:02;2.58;;;1.70;;
75516;SDS011;64097;52.548;13.406;2023-04-24T06:36:28;2.28;;;1.60;;
75516;SDS011;64097;52.548;13.406;2023-04-24T06:38:55;2.63;;;1.70;;
75516;SDS011;64097;52.548;13.406;2023-04-24T06:41:23;2.63;;;1.67;;
75516;SDS011;64097;52.548;13.406;2023-04-24T06:43:50;1.70;;;1.40;;
75516;SDS011;64097;52.548;13.406;2023-04-24T06:46:15;1.90;;;1.55;;
75516;SDS011;64097;52.548;13.406;2023-04-24T06:48:41;1.80;;;1.60;;
75516;SDS011;64097;52.548;13.406;2023-04-24T06:51:07;1.40;;;1.30;;
75516;SDS011;64097;52.548;13.406;2023-04-24T06:53:32;1.30;;;1.20;;
75516;SDS011;64097;52.548;13.406;2023-04-24T06:55:58;2.03;;;1.27;;
75516;SDS011;64097;52.548;13.406;2023-04-24T06:58:24;1.30;;;1.20;;
75516;SDS011;64097;52.548;13.406;2023-04-24T07:00:50;1.55;;;1.40;;
75516;SDS011;64097;52.548;13.406;2023-04-24T07:03:16;3.78;;;1.67;;
75516;SDS011;64097;52.548;13.406;2023-04-24T07:05:41;1.67;;;1.40;;
75516;SDS011;64097;52.548;13.406;2023-04-24T07:08:07;2.92;;;0.90;;
75516;SDS011;64097;52.548;13.406;2023-04-24T07:10:33;0.90;;;0.90;;
75516;SDS011;64097;52.548;13.406;2023-04-24T07:13:00;1.08;;;0.88;;
75516;SDS011;64097;52.548;13.406;2023-04-24T07:15:26;1.92;;;0.80;;
75516;SDS011;64097;52.548;13.406;2023-04-24T07:17:52;1.10;;;0.90;;
75516;SDS011;64097;52.548;13.406;2023-04-24T07:20:17;1.25;;;0.88;;
75516;SDS011;64097;52.548;13.406;2023-04-24T07:22:43;2.00;;;0.95;;
75516;SDS011;64097;52.548;13.406;2023-04-24T07:25:09;1.02;;;0.93;;
75516;SDS011;64097;52.548;13.406;2023-04-24T07:27:35;2.42;;;1.10;;
75516;SDS011;64097;52.548;13.406;2023-04-24T07:30:01;1.17;;;0.63;;
75516;SDS011;64097;52.548;13.406;2023-04-24T07:32:30;1.30;;;0.70;;
75516;SDS011;64097;52.548;13.406;2023-04-24T07:34:56;0.75;;;0.50;;
75516;SDS011;64097;52.548;13.406;2023-04-24T07:37:22;0.70;;;0.50;;
75516;SDS011;64097;52.548;13.406;2023-04-24T07:39:49;1.30;;;0.80;;
75516;SDS011;64097;52.548;13.406;2023-04-24T07:42:14;1.83;;;1.60;;
75516;SDS011;64097;52.548;13.406;2023-04-24T07:44:40;2.90;;;1.95;;
75516;SDS011;64097;52.548;13.406;2023-04-24T07:47:06;1.85;;;1.70;;
75516;SDS011;64097;52.548;13.406;2023-04-24T07:49:32;3.00;;;1.30;;
75516;SDS011;64097;52.548;13.406;2023-04-24T07:52:00;2.28;;;0.90;;
75516;SDS011;64097;52.548;13.406;2023-04-24T07:54:27;3.10;;;1.05;;
75516;SDS011;64097;52.548;13.406;2023-04-24T07:56:53;3.58;;;1.08;;
75516;SDS011;64097;52.548;13.406;2023-04-24T07:59:19;1.15;;;0.73;;
75516;SDS011;64097;52.548;13.406;2023-04-24T08:01:45;1.25;;;0.90;;
75516;SDS011;64097;52.548;13.406;2023-04-24T08:04:10;3.53;;;0.93;;
75516;SDS011;64097;52.548;13.406;2023-04-24T08:06:36;2.13;;;0.88;;
75516;SDS011;64097;52.548;13.406;2023-04-24T08:09:02;1.05;;;0.60;;
75516;SDS011;64097;52.548;13.406;2023-04-24T08:11:28;1.02;;;0.60;;
75516;SDS011;64097;52.548;13.406;2023-04-24T08:13:53;0.50;;;0.43;;
75516;SDS011;64097;52.548;13.406;2023-04-24T08:16:19;0.68;;;0.45;;
75516;SDS011;64097;52.548;13.406;2023-04-24T08:18:45;0.50;;;0.50;;
75516;SDS011;64097;52.548;13.406;2023-04-24T08:21:11;1.48;;;0.60;;
75516;SDS011;64097;52.548;13.406;2023-04-24T08:23:41;0.75;;;0.43;;
75516;SDS011;64097;52.548;13.406;2023-04-24T08:26:08;0.73;;;0.55;;
75516;SDS011;64097;52.548;13.406;2023-04-24T08:28:34;0.60;;;0.52;;
75516;SDS011;64097;52.548;13.406;2023-04-24T08:30:59;2.50;;;0.57;;
75516;SDS011;64097;52.548;13.406;2023-04-24T08:33:25;0.60;;;0.50;;
75516;SDS011;64097;52.548;13.406;2023-04-24T08:35:51;0.52;;;0.50;;
75516;SDS011;64097;52.548;13.406;2023-04-24T08:38:17;1.10;;;0.60;;
75516;SDS011;64097;52.548;13.406;2023-04-24T08:40:43;1.77;;;0.50;;
75516;SDS011;64097;52.548;13.406;2023-04-24T08:43:11;0.73;;;0.50;;
75516;SDS011;64097;52.548;13.406;2023-04-24T08:45:38;1.23;;;0.40;;
75516;SDS011;64097;52.548;13.406;2023-04-24T08:48:04;3.67;;;0.60;;
75516;SDS011;64097;52.548;13.406;2023-04-24T08:50:31;0.98;;;0.50;;
75516;SDS011;64097;52.548;13.406;2023-04-24T08:52:57;0.90;;;0.60;;
75516;SDS011;64097;52.548;13.406;2023-04-24T08:55:23;0.80;;;0.40;;
75516;SDS011;64097;52.548;13.406;2023-04-24T08:57:51;2.17;;;0.90;;
75516;SDS011;64097;52.548;13.406;2023-04-24T09:00:21;0.98;;;0.80;;
75516;SDS011;64097;52.548;13.406;2023-04-24T09:02:48;1.52;;;0.60;;
75516;SDS011;64097;52.548;13.406;2023-04-24T09:05:16;0.95;;;0.70;;
75516;SDS011;64097;52.548;13.406;2023-04-24T09:07:45;2.45;;;1.80;;
75516;SDS011;64097;52.548;13.406;2023-04-24T09:10:14;1.10;;;0.70;;
75516;SDS011;64097;52.548;13.406;2023-04-24T09:12:40;3.03;;;1.00;;
75516;SDS011;64097;52.548;13.406;2023-04-24T09:15:07;3.17;;;0.65;;
75516;SDS011;64097;52.548;13.406;2023-04-24T09:17:34;1.05;;;0.50;;
75516;SDS011;64097;52.548;13.406;2023-04-24T09:20:00;1.90;;;0.35;;
75516;SDS011;64097;52.548;13.406;2023-04-24T09:22:28;0.93;;;0.45;;
75516;SDS011;64097;52.548;13.406;2023-04-24T09:25:04;1.50;;;0.43;;
75516;SDS011;64097;52.548;13.406;2023-04-24T09:27:34;1.77;;;0.50;;
75516;SDS011;64097;52.548;13.406;2023-04-24T09:30:00;0.50;;;0.50;;
75516;SDS011;64097;52.548;13.406;2023-04-24T09:32:27;1.65;;;0.70;;
75516;SDS011;64097;52.548;13.406;2023-04-24T09:37:40;1.52;;;1.00;;
75516;SDS011;64097;52.548;13.406;2023-04-24T09:40:17;1.80;;;0.93;;
75516;SDS011;64097;52.548;13.406;2023-04-24T09:42:44;1.33;;;0.50;;
75516;SDS011;64097;52.548;13.406;2023-04-24T09:45:11;0.95;;;0.60;;
75516;SDS011;64097;52.548;13.406;2023-04-24T09:47:38;1.42;;;0.60;;
75516;SDS011;64097;52.548;13.406;2023-04-24T09:50:14;1.58;;;0.80;;
75516;SDS011;64097;52.548;13.406;2023-04-24T09:52:45;1.75;;;0.50;;
75516;SDS011;64097;52.548;13.406;2023-04-24T09:55:20;1.23;;;0.60;;
75516;SDS011;64097;52.548;13.406;2023-04-24T09:57:54;1.02;;;0.70;;
75516;SDS011;64097;52.548;13.406;2023-04-24T10:00:26;2.17;;;0.80;;
75516;SDS011;64097;52.548;13.406;2023-04-24T10:03:00;1.25;;;0.60;;
75516;SDS011;64097;52.548;13.406;2023-04-24T10:05:31;4.28;;;0.60;;
75516;SDS011;64097;52.548;13.406;2023-04-24T10:08:02;1.58;;;0.75;;
75516;SDS011;64097;52.548;13.406;2023-04-24T10:10:29;2.45;;;0.60;;
75516;SDS011;64097;52.548;13.406;2023-04-24T10:12:56;1.60;;;0.70;;
75516;SDS011;64097;52.548;13.406;2023-04-24T10:15:22;0.60;;;0.52;;
75516;SDS011;64097;52.548;13.406;2023-04-24T10:17:48;1.45;;;0.52;;
75516;SDS011;64097;52.548;13.406;2023-04-24T10:20:19;3.88;;;1.30;;
75516;SDS011;64097;52.548;13.406;2023-04-24T10:22:49;3.40;;;1.15;;
75516;SDS011;64097;52.548;13.406;2023-04-24T10:25:17;3.28;;;0.73;;
75516;SDS011;64097;52.548;13.406;2023-04-24T10:27:48;1.23;;;0.75;;
75516;SDS011;64097;52.548;13.406;2023-04-24T10:30:15;1.05;;;0.50;;
75516;SDS011;64097;52.548;13.406;2023-04-24T10:32:42;2.35;;;0.70;;
75516;SDS011;64097;52.548;13.406;2023-04-24T10:35:08;2.72;;;0.98;;
75516;SDS011;64097;52.548;13.406;2023-04-24T10:37:40;5.30;;;0.65;;
75516;SDS011;64097;52.548;13.406;2023-04-24T10:40:18;3.60;;;0.60;;
75516;SDS011;64097;52.548;13.406;2023-04-24T10:42:51;2.17;;;0.50;;
75516;SDS011;64097;52.548;13.406;2023-04-24T10:45:22;5.80;;;1.02;;
75516;SDS011;64097;52.548;13.406;2023-04-24T10:48:01;2.70;;;0.90;;
75516;SDS011;64097;52.548;13.406;2023-04-24T10:50:29;1.63;;;0.70;;
75516;SDS011;64097;52.548;13.406;2023-04-24T10:53:07;1.58;;;0.70;;
75516;SDS011;64097;52.548;13.406;2023-04-24T10:55:47;2.25;;;0.70;;
75516;SDS011;64097;52.548;13.406;2023-04-24T10:58:23;2.72;;;0.80;;
75516;SDS011;64097;52.548;13.406;2023-04-24T11:01:03;4.28;;;0.70;;
75516;SDS011;64097;52.548;13.406;2023-04-24T11:03:30;1.35;;;0.43;;
75516;SDS011;64097;52.548;13.406;2023-04-24T11:06:07;3.63;;;0.70;;
75516;SDS011;64097;52.548;13.406;2023-04-24T11:08:46;3.45;;;0.63;;
75516;SDS011;64097;52.548;13.406;2023-04-24T11:11:16;3.75;;;0.60;;
75516;SDS011;64097;52.548;13.406;2023-04-24T11:19:09;3.80;;;0.80;;
75516;SDS011;64097;52.548;13.406;2023-04-24T11:22:00;3.25;;;0.88;;
75516;SDS011;64097;52.548;13.406;2023-04-24T11:27:20;1.05;;;0.55;;
75516;SDS011;64097;52.548;13.406;2023-04-24T11:35:16;1.05;;;0.60;;
75516;SDS011;64097;52.548;13.406;2023-04-24T11:37:44;2.08;;;0.57;;
75516;SDS011;64097;52.548;13.406;2023-04-24T11:40:13;1.83;;;0.60;;
75516;SDS011;64097;52.548;13.406;2023-04-24T11:42:41;1.27;;;0.47;;
75516;SDS011;64097;52.548;13.406;2023-04-24T11:45:17;1.70;;;0.63;;
75516;SDS011;64097;52.548;13.406;2023-04-24T11:47:46;1.05;;;0.40;;
75516;SDS011;64097;52.548;13.406;2023-04-24T11:50:13;3.42;;;0.70;;
75516;SDS011;64097;52.548;13.406;2023-04-24T11:52:41;2.83;;;0.68;;
75516;SDS011;64097;52.548;13.406;2023-04-24T11:57:39;0.82;;;0.50;;
75516;SDS011;64097;52.548;13.406;2023-04-24T12:00:18;0.93;;;0.50;;
75516;SDS011;64097;52.548;13.406;2023-04-24T12:02:48;0.45;;;0.40;;
75516;SDS011;64097;52.548;13.406;2023-04-24T12:05:22;1.35;;;0.50;;
75516;SDS011;64097;52.548;13.406;2023-04-24T12:07:49;3.38;;;0.60;;
75516;SDS011;64097;52.548;13.406;2023-04-24T12:10:19;1.60;;;0.40;;
75516;SDS011;64097;52.548;13.406;2023-04-24T12:12:50;2.00;;;0.60;;
75516;SDS011;64097;52.548;13.406;2023-04-24T12:15:17;1.17;;;0.50;;
75516;SDS011;64097;52.548;13.406;2023-04-24T12:17:44;1.05;;;0.50;;
75516;SDS011;64097;52.548;13.406;2023-04-24T12:20:11;1.77;;;0.45;;
75516;SDS011;64097;52.548;13.406;2023-04-24T12:25:16;1.92;;;0.55;;
75516;SDS011;64097;52.548;13.406;2023-04-24T12:27:46;1.08;;;0.60;;
75516;SDS011;64097;52.548;13.406;2023-04-24T12:30:21;2.78;;;0.80;;
75516;SDS011;64097;52.548;13.406;2023-04-24T12:32:51;3.67;;;0.63;;
75516;SDS011;64097;52.548;13.406;2023-04-24T12:35:20;3.00;;;0.68;;
75516;SDS011;64097;52.548;13.406;2023-04-24T12:37:47;2.42;;;0.70;;
75516;SDS011;64097;52.548;13.406;2023-04-24T12:40:14;2.33;;;0.60;;
75516;SDS011;64097;52.548;13.406;2023-04-24T12:42:46;5.30;;;0.80;;
75516;SDS011;64097;52.548;13.406;2023-04-24T12:45:13;2.03;;;0.60;;
75516;SDS011;64097;52.548;13.406;2023-04-24T12:47:40;1.40;;;0.60;;
75516;SDS011;64097;52.548;13.406;2023-04-24T12:50:07;1.40;;;0.60;;
75516;SDS011;64097;52.548;13.406;2023-04-24T12:52:34;3.22;;;0.60;;
75516;SDS011;64097;52.548;13.406;2023-04-24T12:55:00;1.30;;;0.50;;
75516;SDS011;64097;52.548;13.406;2023-04-24T12:57:27;1.95;;;0.55;;
75516;SDS011;64097;52.548;13.406;2023-04-24T12:59:55;2.92;;;0.75;;
75516;SDS011;64097;52.548;13.406;2023-04-24T13:02:23;4.90;;;0.68;;
75516;SDS011;64097;52.548;13.406;2023-04-24T13:04:52;2.10;;;0.50;;
75516;SDS011;64097;52.548;13.406;2023-04-24T13:07:19;3.22;;;0.60;;
75516;SDS011;64097;52.548;13.406;2023-04-24T13:09:45;1.17;;;0.60;;
75516;SDS011;64097;52.548;13.406;2023-04-24T13:12:13;1.52;;;0.50;;
75516;SDS011;64097;52.548;13.406;2023-04-24T13:14:39;1.65;;;0.50;;
75516;SDS011;64097;52.548;13.406;2023-04-24T13:17:05;2.72;;;0.60;;
75516;SDS011;64097;52.548;13.406;2023-04-24T13:19:35;1.85;;;0.60;;
75516;SDS011;64097;52.548;13.406;2023-04-24T13:22:02;4.68;;;0.60;;
75516;SDS011;64097;52.548;13.406;2023-04-24T13:24:29;2.08;;;0.60;;
75516;SDS011;64097;52.548;13.406;2023-04-24T13:26:56;2.08;;;0.60;;
75516;SDS011;64097;52.548;13.406;2023-04-24T13:29:22;3.97;;;0.60;;
75516;SDS011;64097;52.548;13.406;2023-04-24T13:31:49;3.15;;;0.52;;
75516;SDS011;64097;52.548;13.406;2023-04-24T13:34:16;3.35;;;0.50;;
75516;SDS011;64097;52.548;13.406;2023-04-24T13:36:45;5.03;;;0.60;;
75516;SDS011;64097;52.548;13.406;2023-04-24T13:39:11;0.70;;;0.60;;
75516;SDS011;64097;52.548;13.406;2023-04-24T13:41:36;1.17;;;0.63;;
75516;SDS011;64097;52.548;13.406;2023-04-24T13:44:03;1.20;;;0.60;;
75516;SDS011;64097;52.548;13.406;2023-04-24T13:46:29;1.80;;;0.57;;
75516;SDS011;64097;52.548;13.406;2023-04-24T13:48:55;2.92;;;0.60;;
75516;SDS011;64097;52.548;13.406;2023-04-24T13:51:23;2.92;;;0.68;;
75516;SDS011;64097;52.548;13.406;2023-04-24T13:53:52;2.70;;;0.60;;
75516;SDS011;64097;52.548;13.406;2023-04-24T13:56:20;1.35;;;0.60;;
75516;SDS011;64097;52.548;13.406;2023-04-24T13:58:45;1.48;;;0.75;;
